Time;durP1;ratioP1;P1;durP2;ratioP2;P2;SDS_P1;SDS_P2;PMS_P1;PMS_P2;Temp;Humidity;BMP_temperature;BMP_pressure;BME280_temperature;BME280_humidity;BME280_pressure;Samples;Min_cycle;Max_cycle;Signal;HPM_P1;HPM_P2
2022/12/17 13:06:40;;;;;;;36.13;13.80;;;-3.70;99.90;;;;;;5065512;28;20063;-78
2022/12/17 13:09:19;;;;;;;39.00;13.57;;;-3.10;99.90;;;;;;5062480;28;20021;-78
2022/12/17 13:12:03;;;;;;;44.28;14.82;;;-3.40;99.90;;;;;;5064821;28;20028;-74
2022/12/17 13:14:49;;;;;;;37.78;13.55;;;-3.30;99.90;;;;;;5058143;28;20029;-77
2022/12/17 13:17:15;;;;;;;39.20;16.05;;;-3.10;99.90;;;;;;5057908;28;20033;-75
2022/12/17 13:19:56;;;;;;;39.00;14.07;;;-3.30;99.90;;;;;;5059883;28;20071;-77
2022/12/17 13:22:22;;;;;;;39.60;14.90;;;-3.50;99.90;;;;;;5055539;28;20104;-78
2022/12/17 13:25:08;;;;;;;45.55;15.40;;;-3.50;99.90;;;;;;5053564;28;20563;-75
2022/12/17 13:27:33;;;;;;;31.80;9.43;;;-3.60;99.90;;;;;;5069623;28;20025;-78
2022/12/17 13:30:17;;;;;;;39.20;12.68;;;-5.20;99.90;;;;;;5055912;28;20035;-77
2022/12/17 13:33:17;;;;;;;43.53;14.50;;;-3.80;99.90;;;;;;5053361;28;20647;-76
2022/12/17 13:36:02;;;;;;;34.03;10.43;;;-4.20;99.90;;;;;;5057109;28;20048;-76
2022/12/17 13:38:49;;;;;;;93.88;33.38;;;-4.30;99.90;;;;;;5051009;28;20469;-75
2022/12/17 13:41:20;;;;;;;68.43;20.02;;;-3.90;99.90;;;;;;5037480;28;20026;-76
2022/12/17 13:43:46;;;;;;;45.88;17.75;;;;;;;;;;5032662;28;20076;-77
2022/12/17 13:46:27;;;;;;;96.70;33.65;;;-3.80;99.90;;;;;;5030768;28;20406;-76
2022/12/17 13:48:58;;;;;;;52.85;16.08;;;-4.20;99.90;;;;;;5032805;28;20026;-76
2022/12/17 13:51:27;;;;;;;52.75;15.57;;;-4.10;99.90;;;;;;5032250;28;20120;-77
2022/12/17 13:54:01;;;;;;;46.35;15.77;;;-4.10;99.90;;;;;;5034035;28;20053;-76
2022/12/17 13:56:38;;;;;;;50.83;18.23;;;-4.20;99.90;;;;;;5033907;28;20039;-76
2022/12/17 13:59:04;;;;;;;73.13;28.55;;;-4.10;99.90;;;;;;5031025;28;20033;-76
2022/12/17 14:01:31;;;;;;;54.85;19.60;;;-4.20;99.90;;;;;;5031854;28;20025;-76
2022/12/17 14:04:00;;;;;;;45.67;17.55;;;-4.20;99.90;;;;;;5031362;28;20041;-78
2022/12/17 14:06:36;;;;;;;56.70;17.00;;;-4.20;99.90;;;;;;5033355;28;20052;-77
2022/12/17 14:09:02;;;;;;;43.30;16.05;;;-4.10;99.90;;;;;;5034430;28;20112;-78
2022/12/17 14:14:39;;;;;;;47.55;18.30;;;-4.30;99.90;;;;;;5030967;28;20052;-76
2022/12/17 14:17:05;;;;;;;54.38;16.35;;;-4.20;99.90;;;;;;5033315;28;20337;-75
2022/12/17 14:19:32;;;;;;;55.13;20.77;;;-4.10;99.90;;;;;;5035180;28;20104;-74
2022/12/17 14:21:59;;;;;;;47.70;16.20;;;-4.20;99.90;;;;;;5031036;28;20028;-77
2022/12/17 14:24:28;;;;;;;51.63;17.42;;;-4.30;99.90;;;;;;5032645;28;20101;-75
2022/12/17 14:26:56;;;;;;;57.72;17.92;;;-4.20;99.90;;;;;;5031597;28;20025;-77
2022/12/17 14:29:31;;;;;;;60.03;23.30;;;-4.20;99.90;;;;;;5033447;28;20531;-76
2022/12/17 14:32:02;;;;;;;42.90;16.05;;;-4.40;99.90;;;;;;5033061;28;20761;-74
2022/12/17 14:34:28;;;;;;;63.28;20.63;;;-4.20;99.90;;;;;;5036434;28;20071;-76
2022/12/17 14:36:59;;;;;;;63.47;22.77;;;-4.30;99.90;;;;;;5034704;28;20045;-76
2022/12/17 14:39:25;;;;;;;53.33;17.45;;;-4.40;99.90;;;;;;5034539;28;20375;-76
2022/12/17 14:44:48;;;;;;;39.35;16.33;;;-4.20;99.90;;;;;;5034640;28;20090;-76
2022/12/17 14:47:20;;;;;;;37.63;12.70;;;-4.20;99.90;;;;;;5032540;28;20051;-77
2022/12/17 14:50:11;;;;;;;47.42;18.88;;;-4.10;99.90;;;;;;5032264;28;20072;-76
2022/12/17 14:52:40;;;;;;;50.30;19.95;;;-4.20;99.90;;;;;;5035663;28;20028;-78
2022/12/17 14:55:23;;;;;;;44.80;16.55;;;-4.20;99.90;;;;;;5033721;28;20352;-76
2022/12/17 14:57:50;;;;;;;51.13;18.40;;;-4.20;99.90;;;;;;5035637;28;20468;-75
2022/12/17 15:00:17;;;;;;;57.70;19.63;;;-4.20;99.90;;;;;;5033852;28;20060;-77
2022/12/17 15:02:47;;;;;;;48.83;20.05;;;-4.20;99.90;;;;;;5035516;28;20033;-74
2022/12/17 15:05:16;;;;;;;51.30;18.15;;;-4.20;99.90;;;;;;5034734;28;20034;-75
2022/12/17 15:07:42;;;;;;;55.08;20.08;;;-4.30;99.90;;;;;;5032876;28;20040;-76
2022/12/17 15:10:13;;;;;;;56.60;18.67;;;-4.30;99.90;;;;;;5035847;28;20026;-76
2022/12/17 15:12:41;;;;;;;44.85;12.82;;;-4.30;99.90;;;;;;5037965;28;20040;-77
2022/12/17 15:15:11;;;;;;;37.90;16.67;;;-4.60;99.90;;;;;;5034223;28;20026;-77
2022/12/17 15:17:36;;;;;;;43.22;20.23;;;-4.50;99.90;;;;;;5038820;28;20025;-79
2022/12/17 15:20:02;;;;;;;53.50;18.65;;;-4.50;99.90;;;;;;5035425;28;20572;-76
2022/12/17 15:22:28;;;;;;;37.08;14.25;;;;;;;;;;5035760;28;20048;-76
2022/12/17 15:24:54;;;;;;;44.53;18.50;;;-4.50;99.90;;;;;;5036784;28;20124;-78
2022/12/17 15:27:20;;;;;;;50.05;20.63;;;;;;;;;;5037279;28;20368;-76
2022/12/17 15:29:46;;;;;;;43.75;15.32;;;;;;;;;;5037220;28;20039;-76
2022/12/17 15:32:21;;;;;;;42.05;14.75;;;-4.60;99.90;;;;;;5037829;28;20064;-76
2022/12/17 15:34:47;;;;;;;47.55;16.05;;;-4.50;99.90;;;;;;5037456;28;20026;-77
2022/12/17 15:37:13;;;;;;;53.55;16.67;;;-4.50;99.90;;;;;;5037915;28;20157;-77
2022/12/17 15:39:39;;;;;;;59.58;21.30;;;-4.50;99.90;;;;;;5038451;28;20411;-77
2022/12/17 15:44:50;;;;;;;39.67;15.95;;;-4.40;99.90;;;;;;5037451;28;20044;-77
2022/12/17 15:47:16;;;;;;;45.03;16.90;;;-4.40;99.90;;;;;;5037920;28;20022;-77
2022/12/17 15:49:43;;;;;;;45.15;19.73;;;;;;;;;;5040204;28;20033;-78
2022/12/17 15:52:13;;;;;;;53.70;19.00;;;-4.30;99.90;;;;;;5038621;28;20088;-77
2022/12/17 15:54:42;;;;;;;43.38;16.67;;;-4.40;99.90;;;;;;5049939;28;20076;-77
2022/12/17 15:57:08;;;;;;;51.03;20.75;;;-4.40;99.90;;;;;;5035661;28;20022;-76
2022/12/17 15:59:35;;;;;;;57.47;20.98;;;-4.60;99.90;;;;;;5036336;28;20033;-77
2022/12/17 16:02:01;;;;;;;59.60;19.60;;;-4.60;99.90;;;;;;5036181;28;20049;-75
2022/12/17 16:04:27;;;;;;;59.65;19.48;;;;;;;;;;5036465;28;20041;-76
2022/12/17 16:06:53;;;;;;;56.75;19.38;;;-4.60;99.90;;;;;;5035032;28;20026;-76
2022/12/17 16:09:23;;;;;;;49.38;17.23;;;-4.60;99.90;;;;;;5049421;28;20021;-76
2022/12/17 16:11:51;;;;;;;71.88;22.95;;;-4.00;99.90;;;;;;5049206;28;20047;-76
2022/12/17 16:14:17;;;;;;;67.45;21.92;;;-4.70;99.90;;;;;;5033828;28;20029;-76
2022/12/17 16:16:43;;;;;;;55.75;19.75;;;-4.60;99.90;;;;;;5034039;28;20032;-75
2022/12/17 16:19:09;;;;;;;57.47;16.98;;;-4.80;99.90;;;;;;5034429;28;20034;-75
2022/12/17 16:21:35;;;;;;;74.43;21.90;;;-4.80;99.90;;;;;;5035956;28;20382;-76
2022/12/17 16:24:00;;;;;;;59.72;21.05;;;-5.00;99.90;;;;;;5033028;28;20037;-75
2022/12/17 16:26:26;;;;;;;45.67;17.80;;;-5.00;99.90;;;;;;5033861;28;20113;-75
2022/12/17 16:28:52;;;;;;;75.22;25.00;;;-5.00;99.90;;;;;;5035732;28;20044;-75
2022/12/17 16:31:18;;;;;;;79.13;24.27;;;-4.90;99.90;;;;;;5034830;28;20030;-76
2022/12/17 16:33:46;;;;;;;44.95;13.50;;;-4.80;99.90;;;;;;5036659;28;20043;-75
2022/12/17 16:36:15;;;;;;;57.72;20.63;;;-4.90;99.90;;;;;;5036066;28;20025;-75
2022/12/17 16:38:52;;;;;;;53.88;17.45;;;-4.90;99.90;;;;;;5036848;28;20494;-76
2022/12/17 16:41:20;;;;;;;75.68;22.42;;;-4.90;99.90;;;;;;5037082;28;20060;-75
2022/12/17 16:43:46;;;;;;;68.32;20.20;;;-4.90;99.90;;;;;;5036675;28;20037;-75
2022/12/17 16:46:33;;;;;;;63.92;21.55;;;-4.90;99.90;;;;;;5034911;28;20374;-76
2022/12/17 16:49:05;;;;;;;84.25;26.13;;;-4.90;99.90;;;;;;5033035;28;20021;-74
2022/12/17 16:51:31;;;;;;;64.82;19.88;;;-4.90;99.90;;;;;;5033508;28;20022;-75
2022/12/17 16:53:58;;;;;;;74.63;23.45;;;-5.10;99.90;;;;;;5035476;28;20017;-75
2022/12/17 16:56:26;;;;;;;78.47;22.75;;;-5.00;99.90;;;;;;5032845;28;20482;-76
2022/12/17 16:58:53;;;;;;;63.40;19.55;;;-5.00;99.90;;;;;;5037133;28;20100;-76
2022/12/17 17:01:25;;;;;;;41.08;13.48;;;-5.00;99.90;;;;;;5042847;28;20536;-75
2022/12/17 17:03:51;;;;;;;86.55;22.13;;;-4.90;99.90;;;;;;5050938;28;20324;-73
2022/12/17 17:06:19;;;;;;;59.42;18.17;;;-5.00;99.90;;;;;;5053174;28;20027;-73
2022/12/17 17:08:46;;;;;;;61.47;19.77;;;-5.10;99.90;;;;;;5052859;28;20495;-75
2022/12/17 17:11:13;;;;;;;48.40;16.85;;;-5.10;99.90;;;;;;5052780;28;20035;-75
2022/12/17 17:13:40;;;;;;;72.80;21.73;;;-5.10;99.90;;;;;;5052444;28;20029;-74
2022/12/17 17:16:07;;;;;;;49.05;20.23;;;-5.20;99.90;;;;;;5054248;28;20271;-75
2022/12/17 17:18:33;;;;;;;42.50;13.48;;;-5.20;99.90;;;;;;5053510;28;20055;-76
2022/12/17 17:21:33;;;;;;;62.63;20.23;;;-5.10;99.90;;;;;;5051566;28;20505;-76
2022/12/17 17:24:00;;;;;;;83.25;23.50;;;-5.50;99.90;;;;;;5037861;28;20052;-76
2022/12/17 17:26:27;;;;;;;59.38;19.95;;;-5.10;99.90;;;;;;5053367;28;20551;-74
2022/12/17 17:28:53;;;;;;;74.20;19.17;;;-4.90;99.90;;;;;;5052955;28;20497;-76
2022/12/17 17:31:19;;;;;;;65.65;21.50;;;-5.00;99.90;;;;;;5053526;28;20059;-76
2022/12/17 17:33:48;;;;;;;88.35;24.48;;;-5.00;99.90;;;;;;5053032;28;20037;-76
2022/12/17 17:36:19;;;;;;;68.30;24.67;;;-5.10;99.90;;;;;;5053299;28;20017;-76
2022/12/17 17:38:46;;;;;;;66.88;18.05;;;-5.10;99.90;;;;;;5050970;28;20049;-76
2022/12/17 17:41:14;;;;;;;77.05;21.70;;;-5.10;99.90;;;;;;5050855;28;20013;-75
2022/12/17 17:43:40;;;;;;;94.93;26.63;;;-5.30;99.90;;;;;;5051511;28;20057;-71
2022/12/17 17:46:11;;;;;;;75.88;22.48;;;-5.00;99.90;;;;;;5050764;28;20064;-74
2022/12/17 17:48:37;;;;;;;53.85;17.88;;;-5.00;99.90;;;;;;5052883;28;20029;-76
2022/12/17 17:51:06;;;;;;;63.45;21.40;;;-2.70;99.90;;;;;;5051670;28;20021;-74
2022/12/17 17:53:31;;;;;;;84.22;22.88;;;-5.00;99.90;;;;;;5051741;28;20033;-75
2022/12/17 17:56:05;;;;;;;63.03;20.52;;;-4.90;99.90;;;;;;5052341;28;20028;-76
2022/12/17 17:58:31;;;;;;;89.03;22.48;;;-5.00;99.90;;;;;;5051214;28;20088;-75
2022/12/17 18:00:57;;;;;;;82.57;23.90;;;-5.10;99.90;;;;;;5050295;28;20025;-73
2022/12/17 18:03:23;;;;;;;65.30;22.55;;;-5.10;99.90;;;;;;5050010;28;20078;-73
2022/12/17 18:05:49;;;;;;;67.93;22.55;;;-5.00;99.90;;;;;;5050558;28;20017;-75
2022/12/17 18:08:14;;;;;;;71.13;22.75;;;-5.10;99.90;;;;;;5053398;28;20508;-75
2022/12/17 18:10:41;;;;;;;90.38;26.52;;;-5.10;99.90;;;;;;5052227;28;20096;-75
2022/12/17 18:15:51;;;;;;;69.03;20.25;;;-5.20;99.90;;;;;;5050530;28;20075;-75
2022/12/17 18:18:17;;;;;;;83.32;27.98;;;-5.10;99.90;;;;;;5066126;28;20424;-75
2022/12/17 18:20:43;;;;;;;23.08;9.90;;;-5.20;99.90;;;;;;5050667;28;20040;-75
2022/12/17 18:23:08;;;;;;;54.25;16.60;;;-5.10;99.90;;;;;;5049068;28;20517;-75
2022/12/17 18:25:34;;;;;;;89.45;22.70;;;-5.30;99.90;;;;;;5068460;28;20029;-74
2022/12/17 18:27:59;;;;;;;43.70;15.82;;;-5.20;99.90;;;;;;5054974;28;20025;-75
2022/12/17 18:30:25;;;;;;;55.45;18.55;;;-5.30;99.90;;;;;;5051874;28;20028;-76
2022/12/17 18:32:51;;;;;;;65.28;20.95;;;;;;;;;;5053466;28;20111;-76
2022/12/17 18:35:17;;;;;;;61.60;20.10;;;-5.10;99.90;;;;;;5052906;28;20043;-75
2022/12/17 18:37:42;;;;;;;75.95;19.92;;;-5.10;99.90;;;;;;5052694;28;20048;-76
2022/12/17 18:40:08;;;;;;;65.93;19.95;;;-5.20;99.90;;;;;;5052407;28;20452;-75
2022/12/17 18:45:18;;;;;;;54.75;19.52;;;-5.10;99.90;;;;;;5057564;28;20044;-76
2022/12/17 18:47:44;;;;;;;65.57;21.17;;;-5.70;99.90;;;;;;5057393;28;20025;-75
2022/12/17 18:50:11;;;;;;;63.60;18.15;;;-5.20;99.90;;;;;;5058523;28;20074;-76
2022/12/17 18:52:37;;;;;;;59.92;19.80;;;-5.20;99.90;;;;;;5058608;28;20496;-77
2022/12/17 18:55:03;;;;;;;48.55;17.25;;;-5.20;99.90;;;;;;5057061;28;20025;-76
2022/12/17 18:57:29;;;;;;;48.05;14.77;;;-5.10;99.90;;;;;;5057350;28;20023;-76
2022/12/17 18:59:55;;;;;;;49.78;17.10;;;-5.20;99.90;;;;;;5056155;28;20037;-75
2022/12/17 19:02:21;;;;;;;61.50;20.17;;;-5.30;99.90;;;;;;5054819;28;20017;-75
2022/12/17 19:04:46;;;;;;;63.50;19.05;;;-5.30;99.90;;;;;;5056338;28;20398;-75
2022/12/17 19:07:12;;;;;;;52.53;16.58;;;-5.10;99.90;;;;;;5058606;28;20028;-75
2022/12/17 19:09:39;;;;;;;111.95;27.00;;;-4.20;99.90;;;;;;5056714;28;20025;-75
2022/12/17 19:12:06;;;;;;;50.75;15.82;;;-5.30;99.90;;;;;;5055000;28;20017;-73
2022/12/17 19:14:33;;;;;;;50.85;16.35;;;-5.30;99.90;;;;;;5055431;28;20018;-75
2022/12/17 19:16:59;;;;;;;74.68;20.05;;;-5.20;99.90;;;;;;5055866;28;20029;-76
2022/12/17 19:19:25;;;;;;;63.72;15.40;;;;;;;;;;5057974;28;20082;-76
2022/12/17 19:21:53;;;;;;;68.97;22.40;;;-5.30;99.90;;;;;;5056217;28;20028;-77
2022/12/17 19:24:20;;;;;;;70.10;27.92;;;-5.30;99.90;;;;;;5054947;28;20116;-75
2022/12/17 19:26:47;;;;;;;55.33;19.63;;;-5.50;99.90;;;;;;5057063;28;20048;-75
2022/12/17 19:29:15;;;;;;;67.82;25.45;;;-5.10;99.90;;;;;;5058355;28;20029;-75
2022/12/17 19:31:41;;;;;;;68.25;24.60;;;-4.60;99.90;;;;;;5055368;28;20327;-75
2022/12/17 19:34:09;;;;;;;62.00;21.08;;;-5.10;99.90;;;;;;5054837;28;20029;-75
2022/12/17 19:36:36;;;;;;;71.15;23.50;;;-5.10;99.90;;;;;;5053287;28;20485;-77
2022/12/17 19:39:05;;;;;;;60.45;21.55;;;-5.00;99.90;;;;;;5058020;28;20128;-75
2022/12/17 19:41:32;;;;;;;55.75;18.10;;;-5.10;99.90;;;;;;5059763;28;20040;-77
2022/12/17 19:44:00;;;;;;;58.88;20.10;;;-5.20;99.90;;;;;;5052736;28;20037;-77
2022/12/17 19:46:26;;;;;;;64.00;22.98;;;-5.30;99.90;;;;;;5056861;28;20025;-77
2022/12/17 19:48:53;;;;;;;61.80;21.48;;;-5.40;99.90;;;;;;5055573;28;20082;-76
2022/12/17 19:51:20;;;;;;;83.30;27.30;;;-5.40;99.90;;;;;;5054833;28;20111;-76
2022/12/17 19:53:47;;;;;;;74.65;24.77;;;-5.40;99.90;;;;;;5053635;28;20021;-77
2022/12/17 19:56:12;;;;;;;58.17;21.23;;;-5.30;99.90;;;;;;5056763;28;20036;-75
2022/12/17 19:58:39;;;;;;;56.88;22.85;;;-5.20;99.90;;;;;;5052329;28;20024;-73
2022/12/17 20:01:10;;;;;;;62.13;21.67;;;-5.10;99.90;;;;;;5051191;28;20040;-75
2022/12/17 20:03:37;;;;;;;54.53;21.13;;;-5.10;99.90;;;;;;5054468;28;20028;-76
2022/12/17 20:06:03;;;;;;;60.10;21.00;;;-5.10;99.90;;;;;;5055908;28;20032;-76
2022/12/17 20:08:30;;;;;;;55.38;20.50;;;-5.10;99.90;;;;;;5051062;28;20048;-75
2022/12/17 20:10:56;;;;;;;61.50;19.48;;;-5.10;99.90;;;;;;5048441;28;20090;-76
2022/12/17 20:13:23;;;;;;;63.88;21.85;;;-5.10;99.90;;;;;;5049232;28;20576;-76
2022/12/17 20:15:58;;;;;;;71.80;21.52;;;-5.10;99.90;;;;;;5052333;28;20035;-75
2022/12/17 20:18:24;;;;;;;71.75;26.25;;;-5.10;99.90;;;;;;5049429;28;20035;-76
2022/12/17 20:20:49;;;;;;;74.13;23.05;;;-5.10;99.90;;;;;;5052265;28;20025;-76
2022/12/17 20:23:15;;;;;;;67.15;20.65;;;-5.40;99.90;;;;;;5050816;28;20401;-76
2022/12/17 20:25:40;;;;;;;74.47;23.55;;;-5.10;99.90;;;;;;5050967;28;20029;-76
2022/12/17 20:28:06;;;;;;;77.60;24.05;;;-5.10;99.90;;;;;;5050204;28;20021;-76
2022/12/17 20:30:32;;;;;;;64.68;24.70;;;-5.20;99.90;;;;;;5050221;28;20086;-78
2022/12/17 20:32:58;;;;;;;72.05;21.52;;;-5.20;99.90;;;;;;5051022;28;20498;-76
2022/12/17 20:35:26;;;;;;;81.25;24.70;;;-5.20;99.90;;;;;;5049720;28;20120;-74
2022/12/17 20:37:52;;;;;;;73.35;23.05;;;-5.10;99.90;;;;;;5050272;28;20438;-77
2022/12/17 20:40:17;;;;;;;64.38;19.00;;;-4.50;99.90;;;;;;5051025;28;20471;-76
2022/12/17 20:42:43;;;;;;;72.70;20.60;;;-5.30;99.90;;;;;;5053260;28;20017;-76
2022/12/17 20:45:10;;;;;;;55.40;22.42;;;-5.20;99.90;;;;;;5051917;28;20036;-75
2022/12/17 20:47:36;;;;;;;58.20;21.63;;;-5.30;99.90;;;;;;5052438;28;20321;-76
2022/12/17 20:50:01;;;;;;;68.15;21.30;;;-5.10;99.90;;;;;;5050915;28;20342;-74
2022/12/17 20:52:27;;;;;;;70.07;19.45;;;-5.60;99.90;;;;;;5051636;28;20478;-76
2022/12/17 20:54:53;;;;;;;61.00;19.73;;;-5.20;99.90;;;;;;5048355;28;20425;-75
2022/12/17 20:57:18;;;;;;;58.70;17.38;;;-5.10;99.90;;;;;;5049163;28;20164;-75
2022/12/17 20:59:45;;;;;;;63.88;21.00;;;-5.10;99.90;;;;;;5052355;28;20367;-76
2022/12/17 21:02:11;;;;;;;73.85;23.20;;;-5.10;99.90;;;;;;5052251;28;20409;-75
2022/12/17 21:04:36;;;;;;;73.78;24.92;;;-5.10;99.90;;;;;;5051606;28;20033;-76
2022/12/17 21:07:02;;;;;;;65.90;23.52;;;-5.10;99.90;;;;;;5051554;28;20428;-75
2022/12/17 21:09:27;;;;;;;72.18;24.38;;;-5.00;99.90;;;;;;5051831;28;20078;-75
2022/12/17 21:11:53;;;;;;;51.65;18.50;;;-5.00;99.90;;;;;;5050992;28;20847;-76
2022/12/17 21:14:19;;;;;;;66.32;19.27;;;-5.10;99.90;;;;;;5047758;28;20044;-76
2022/12/17 21:16:45;;;;;;;55.40;19.02;;;-5.00;99.90;;;;;;5051706;28;20599;-75
2022/12/17 21:19:14;;;;;;;86.30;30.08;;;-5.10;99.90;;;;;;5049550;28;20029;-74
2022/12/17 21:21:40;;;;;;;67.40;23.55;;;-5.10;99.90;;;;;;5050069;28;20090;-74
2022/12/17 21:24:07;;;;;;;62.95;17.30;;;-5.00;99.90;;;;;;5050158;28;20498;-76
2022/12/17 21:26:38;;;;;;;61.72;21.65;;;-4.90;99.90;;;;;;5049401;28;20350;-76
2022/12/17 21:29:06;;;;;;;66.75;23.80;;;-5.00;99.90;;;;;;5050109;28;20096;-74
2022/12/17 21:31:35;;;;;;;63.47;21.95;;;-4.90;99.90;;;;;;5050683;28;20028;-76
2022/12/17 21:34:03;;;;;;;48.17;21.10;;;-5.00;99.90;;;;;;5050981;28;20052;-76
2022/12/17 21:36:30;;;;;;;59.50;19.20;;;-5.00;99.90;;;;;;5048919;28;20101;-76
2022/12/17 21:38:57;;;;;;;52.33;21.17;;;-4.90;99.90;;;;;;5046596;28;20064;-76
2022/12/17 21:41:28;;;;;;;72.35;24.75;;;-5.30;99.90;;;;;;5049127;28;20033;-75
2022/12/17 21:43:55;;;;;;;64.63;20.55;;;-5.30;99.90;;;;;;5051350;28;20041;-76
2022/12/17 21:46:22;;;;;;;60.75;18.27;;;-5.10;99.90;;;;;;5050569;28;20029;-76
2022/12/17 21:48:48;;;;;;;58.80;18.25;;;-5.10;99.90;;;;;;5051828;28;20290;-74
2022/12/17 21:51:14;;;;;;;57.83;20.58;;;-5.10;99.90;;;;;;5052858;28;20021;-76
2022/12/17 21:53:42;;;;;;;50.00;18.90;;;-5.20;99.90;;;;;;5051792;28;20094;-76
2022/12/17 21:56:10;;;;;;;53.67;20.60;;;-5.10;99.90;;;;;;5052802;28;20378;-76
2022/12/17 21:58:36;;;;;;;68.60;22.13;;;-5.10;99.90;;;;;;5046777;28;20032;-74
2022/12/17 22:01:17;;;;;;;55.03;21.55;;;-5.10;99.90;;;;;;5052942;28;20478;-77
2022/12/17 22:03:43;;;;;;;59.70;21.77;;;-5.10;99.90;;;;;;5052735;28;20033;-76
2022/12/17 22:06:12;;;;;;;63.85;20.75;;;-5.10;99.90;;;;;;5052700;28;20185;-76
2022/12/17 22:08:37;;;;;;;53.30;17.20;;;-5.10;99.90;;;;;;5049861;28;20377;-76
2022/12/17 22:11:11;;;;;;;56.22;19.38;;;-5.00;99.90;;;;;;5050214;28;20017;-76
2022/12/17 22:16:23;;;;;;;49.05;18.08;;;-5.00;99.90;;;;;;5052263;28;20174;-74
2022/12/17 22:18:48;;;;;;;48.65;16.17;;;-5.10;99.90;;;;;;5050956;28;20076;-76
2022/12/17 22:21:14;;;;;;;59.78;18.10;;;-4.40;99.90;;;;;;5046279;28;20024;-76
2022/12/17 22:23:40;;;;;;;47.90;21.10;;;-5.00;99.90;;;;;;5046995;28;20059;-73
2022/12/17 22:26:09;;;;;;;46.45;16.83;;;-4.90;99.90;;;;;;5048285;28;20123;-76
2022/12/17 22:28:36;;;;;;;50.40;16.13;;;-5.10;99.90;;;;;;5048078;28;20044;-74
2022/12/17 22:33:50;;;;;;;45.30;16.98;;;;;;;;;;5055061;28;20198;-78
2022/12/17 22:36:16;;;;;;;50.03;17.98;;;-5.30;99.90;;;;;;5061719;28;20035;-76
2022/12/17 22:38:42;;;;;;;48.22;13.82;;;-3.00;99.90;;;;;;5055873;28;20064;-76
2022/12/17 22:43:28;;;;;;;35.35;11.75;;;-5.20;99.90;;;;;;5051694;28;20029;-76
2022/12/17 22:43:54;;;;;;;49.88;17.40;;;-5.30;99.90;;;;;;5049282;28;20096;-78
2022/12/17 22:46:25;;;;;;;62.75;17.67;;;-5.40;99.90;;;;;;5054883;28;20044;-80
2022/12/17 22:48:50;;;;;;;43.45;16.15;;;-5.40;99.90;;;;;;5059499;28;20029;-77
2022/12/17 22:51:16;;;;;;;53.33;18.73;;;-5.30;99.90;;;;;;5038028;28;20030;-79
2022/12/17 22:53:42;;;;;;;46.40;18.83;;;-5.70;99.90;;;;;;5041567;28;20083;-78
2022/12/17 22:56:08;;;;;;;48.08;18.65;;;-5.40;99.90;;;;;;5031742;28;20029;-76
2022/12/17 22:58:36;;;;;;;38.38;14.55;;;-3.30;99.90;;;;;;5052136;28;20112;-78
2022/12/17 23:01:03;;;;;;;55.05;20.08;;;-5.30;99.90;;;;;;5051143;28;20051;-76
2022/12/17 23:03:30;;;;;;;47.22;17.08;;;;;;;;;;5042507;28;20037;-77
2022/12/17 23:06:14;;;;;;;49.85;17.83;;;-5.20;99.90;;;;;;5044101;28;20430;-76
2022/12/17 23:08:39;;;;;;;44.58;16.20;;;-5.30;99.90;;;;;;5042124;28;20552;-77
2022/12/17 23:11:20;;;;;;;59.88;21.02;;;-5.30;99.90;;;;;;5048288;28;20017;-75
2022/12/17 23:13:46;;;;;;;67.28;19.98;;;-5.50;99.90;;;;;;5057797;28;20425;-73
2022/12/17 23:16:13;;;;;;;49.90;17.25;;;-5.90;99.90;;;;;;5048446;28;20026;-74
2022/12/17 23:18:40;;;;;;;55.47;17.85;;;-5.30;99.90;;;;;;5047031;28;20025;-74
2022/12/17 23:21:14;;;;;;;50.65;17.05;;;-5.40;99.90;;;;;;5054205;28;20478;-75
2022/12/17 23:23:40;;;;;;;53.67;20.75;;;-5.50;99.90;;;;;;5050069;28;20041;-78
2022/12/17 23:26:30;;;;;;;48.03;16.73;;;-5.60;99.90;;;;;;5056663;28;20017;-77
2022/12/17 23:29:01;;;;;;;51.28;18.63;;;-5.50;99.90;;;;;;5059208;28;20033;-77
2022/12/17 23:31:31;;;;;;;58.17;19.52;;;-5.60;99.90;;;;;;5051146;28;20036;-74
2022/12/17 23:33:56;;;;;;;36.25;15.07;;;-5.60;99.90;;;;;;5052415;28;20102;-75
2022/12/17 23:36:24;;;;;;;47.15;15.25;;;-5.50;99.90;;;;;;5052149;28;20099;-74
2022/12/17 23:38:52;;;;;;;56.97;19.60;;;-5.50;99.90;;;;;;5051995;28;20120;-76
2022/12/17 23:41:20;;;;;;;59.40;21.13;;;-5.50;99.90;;;;;;5054077;28;20032;-76
2022/12/17 23:43:46;;;;;;;49.85;16.55;;;;;;;;;;5052068;28;20127;-75
2022/12/17 23:46:12;;;;;;;51.33;15.65;;;-5.70;99.90;;;;;;5066757;28;20036;-77
2022/12/17 23:48:40;;;;;;;46.88;21.50;;;-5.60;99.90;;;;;;5046584;28;20021;-78
2022/12/17 23:51:07;;;;;;;54.17;19.25;;;-5.60;99.90;;;;;;5053458;28;20080;-74
2022/12/17 23:53:33;;;;;;;43.55;16.30;;;-5.50;99.90;;;;;;5047817;28;20090;-76
2022/12/17 23:56:05;;;;;;;47.67;17.25;;;-5.60;99.90;;;;;;5044277;28;20393;-76
2022/12/17 23:58:32;;;;;;;50.08;14.90;;;;;;;;;;5045303;28;20111;-77
